Terminal Aerodrome Forecast
Issued by NWS Brownsville, TX

Home | Current Version | Previous Version | Text Only | Print | Product List | Glossary On
Versions: 1 2 3 4 5 6 7 8 9 10 11 12 13 14 15 16
000
FTUS44 KBRO 231720
TAFMFE
TAF
KMFE 231720Z 2318/2418 15021G28KT P6SM SKC
      TEMPO 2318/2321 BKN030
     FM240200 14018G24KT P6SM FEW035 FEW250
     FM240500 14016KT P6SM FEW035 SCT250=

USA.gov is the U.S. government's official web portal to all federal, state and local government web resources and services.